This is the latest recevied weather packets stored in our database for station/object VK6DUG. If no packets are shown the sender has not sent any weather packets the latest 10 day(s).
| Time | Temp. | Humidity | Pressure | Rain* | Wind** | Luminosity | Snow |
|---|---|---|---|---|---|---|---|
| 1777880434 | 20° C | 62% | 1028.4 hPa | 0 mm | - | 226 W/m² | - |
| 1777879831 | 19.44° C | 62% | 1028.5 hPa | 0 mm | - | 257 W/m² | - |
| 1777879228 | 19.44° C | 62% | 1028.6 hPa | 0 mm | - | 292 W/m² | - |
| 1777878625 | 19.44° C | 63% | 1028.5 hPa | 0 mm | - | 327 W/m² | - |
| 1777878022 | 19.44° C | 63% | 1028.5 hPa | 0 mm | - | 349 W/m² | - |
| 1777877419 | 19.44° C | 62% | 1028.5 hPa | 0 mm | - | 373 W/m² | - |
| 1777876816 | 19.44° C | 62% | 1028.5 hPa | 0 mm | - | 400 W/m² | - |
| 1777876234 | 20° C | 62% | 1028.5 hPa | 0 mm | - | 432 W/m² | - |
| 1777875631 | 20° C | 62% | 1028.5 hPa | 0 mm | - | 458 W/m² | - |
| 1777875030 | 21.11° C | 56% | 1028.6 hPa | 0 mm | - | 478 W/m² | - |
| 1777874427 | 21.11° C | 53% | 1028.6 hPa | 0 mm | - | 492 W/m² | - |
| 1777873824 | 20.56° C | 53% | 1028.7 hPa | 0 mm | - | 509 W/m² | - |
| 1777873221 | 21.11° C | 52% | 1028.7 hPa | 0 mm | - | 526 W/m² | - |
| 1777872617 | 21.11° C | 51% | 1028.9 hPa | 0 mm | - | 540 W/m² | - |
| 1777872033 | 21.11° C | 52% | 1029.1 hPa | 0 mm | - | 545 W/m² | - |
| 1777871429 | 20.56° C | 54% | 1029.2 hPa | 0 mm | - | 545 W/m² | - |
| 1777870826 | 20.56° C | 54% | 1029.4 hPa | 0 mm | - | 553 W/m² | - |
| 1777870224 | 20.56° C | 55% | 1029.6 hPa | 0 mm | - | 562 W/m² | - |
| 1777869622 | 20° C | 55% | 1029.7 hPa | 0 mm | - | 569 W/m² | - |
| 1777869019 | 20° C | 57% | 1029.9 hPa | 0 mm | - | 561 W/m² | - |
| 1777868416 | 20.56° C | 55% | 1030 hPa | 0 mm | - | 438 W/m² | - |
| 1777867833 | 20° C | 57% | 1030.3 hPa | 0 mm | - | 551 W/m² | - |
| 1777867229 | 18.89° C | 60% | 1030.4 hPa | 0 mm | - | 548 W/m² | - |
| 1777866627 | 19.44° C | 60% | 1030.6 hPa | 0 mm | - | 548 W/m² | - |
| 1777866024 | 19.44° C | 59% | 1030.8 hPa | 0 mm | - | 549 W/m² | - |
* Rain latest hour (hover to see other rain measurements)
** Current wind speed in m/s (hover to see current wind gust speed)